createdAt,value
2019-01-23T07:35:57.502Z,19.00
2019-01-23T07:38:27.969Z,17.87
2019-01-23T07:40:59.117Z,18.60
2019-01-23T07:43:30.011Z,17.73
2019-01-23T07:46:00.465Z,17.65
2019-01-23T07:48:31.004Z,17.52
2019-01-23T07:51:01.707Z,18.45
2019-01-23T07:53:43.562Z,16.87
2019-01-23T07:58:52.481Z,16.55
2019-01-23T08:01:22.514Z,17.95
2019-01-23T08:06:24.398Z,17.52
2019-01-23T08:08:54.874Z,16.23
2019-01-23T08:11:25.448Z,16.12
2019-01-23T08:14:02.210Z,16.23
2019-01-23T08:16:33.584Z,16.30
2019-01-23T08:19:04.433Z,14.78
2019-01-23T08:21:36.125Z,15.18
2019-01-23T08:24:06.625Z,14.83
2019-01-23T08:26:37.648Z,16.32
2019-01-23T08:29:10.940Z,16.45
2019-01-23T08:31:43.613Z,16.52
2019-01-23T08:37:10.641Z,15.48
2019-01-23T08:42:43.553Z,15.35
2019-01-23T08:56:59.636Z,14.70
2019-01-23T09:06:04.389Z,13.88
2019-01-23T09:11:31.458Z,13.30
2019-01-23T09:26:08.425Z,14.07
2019-01-23T09:32:01.450Z,12.75
2019-01-23T09:35:06.394Z,13.53
2019-01-23T09:48:32.373Z,13.48
2019-01-23T09:52:47.165Z,13.35
2019-01-23T09:55:25.159Z,12.40
2019-01-23T10:07:44.820Z,12.45
2019-01-23T10:13:35.899Z,12.80
2019-01-23T10:16:47.779Z,14.40
2019-01-23T10:19:39.319Z,14.93
2019-01-23T10:22:28.885Z,16.70
2019-01-23T10:25:02.076Z,16.32
2019-01-23T10:27:32.437Z,16.05
2019-01-23T10:30:03.848Z,16.20
2019-01-23T10:32:39.574Z,16.67
2019-01-23T10:38:06.436Z,15.68
2019-01-23T10:40:57.671Z,16.80
2019-01-23T10:43:29.581Z,16.45
2019-01-23T10:46:00.054Z,16.73
2019-01-23T10:48:30.680Z,15.88
2019-01-23T10:51:03.743Z,17.77
2019-01-23T10:53:34.206Z,17.27
2019-01-23T10:56:04.922Z,17.40
2019-01-23T11:13:00.792Z,17.02
2019-01-23T11:15:32.378Z,18.00
2019-01-23T11:18:03.192Z,18.30
2019-01-23T11:20:35.889Z,20.00
2019-01-23T11:23:06.631Z,18.55
2019-01-23T11:25:37.801Z,18.85
2019-01-23T11:28:08.807Z,19.17
2019-01-23T11:30:39.194Z,17.37
2019-01-23T11:33:09.891Z,18.60
2019-01-23T11:35:40.559Z,16.12
2019-01-23T11:38:11.022Z,14.05
2019-01-23T11:40:43.565Z,14.45
2019-01-23T11:43:14.114Z,13.65
2019-01-23T11:45:45.890Z,15.08
2019-01-23T11:48:16.736Z,13.03
2019-01-23T11:50:49.111Z,14.50
2019-01-23T11:53:20.436Z,13.65
2019-01-23T11:55:51.976Z,13.30
2019-01-23T11:58:32.007Z,13.18
2019-01-23T12:10:05.539Z,14.95
2019-01-23T12:12:36.328Z,15.65
2019-01-23T12:17:56.102Z,15.75
2019-01-23T12:20:26.825Z,14.55
2019-01-23T12:26:58.485Z,13.13
2019-01-23T12:29:35.312Z,14.30
2019-01-23T12:32:14.423Z,14.95
2019-01-23T12:35:47.076Z,14.60
2019-01-23T12:38:35.733Z,14.47
2019-01-23T12:41:06.811Z,15.13
2019-01-23T12:43:37.603Z,16.67
2019-01-23T12:46:09.606Z,16.50
2019-01-23T12:48:45.212Z,17.87
2019-01-23T12:53:58.422Z,18.95
2019-01-23T12:56:31.694Z,19.07
2019-01-23T12:59:17.709Z,17.65
2019-01-23T13:02:09.596Z,19.12
2019-01-23T13:05:23.206Z,18.85
2019-01-23T13:14:03.910Z,18.02
2019-01-23T13:19:16.144Z,17.48
2019-01-23T13:21:46.788Z,18.17
2019-01-23T13:24:18.359Z,17.65
2019-01-23T13:26:51.333Z,17.07
2019-01-23T13:32:16.610Z,16.07
2019-01-23T13:34:49.152Z,15.93
2019-01-23T13:40:25.497Z,16.05
2019-01-23T13:42:58.018Z,14.05
2019-01-23T13:48:27.729Z,13.95
2019-01-23T13:50:58.215Z,14.03
2019-01-23T13:56:11.871Z,13.38
2019-01-23T13:59:05.954Z,13.60
2019-01-23T14:01:38.696Z,12.95
2019-01-23T14:09:38.688Z,14.35
2019-01-23T14:12:16.706Z,12.93
2019-01-23T14:14:49.006Z,12.18
2019-01-23T14:17:19.827Z,12.23
2019-01-23T14:19:50.570Z,12.90
2019-01-23T14:22:22.828Z,11.75
2019-01-23T14:24:54.892Z,12.25
2019-01-23T14:27:25.311Z,11.35
2019-01-23T14:29:56.044Z,12.25
2019-01-23T14:32:26.348Z,11.38
2019-01-23T14:34:56.725Z,11.50
2019-01-23T14:37:27.229Z,12.93
2019-01-23T14:39:57.653Z,11.63
2019-01-23T14:42:28.006Z,11.28
2019-01-23T14:44:58.354Z,11.03
2019-01-23T14:47:29.140Z,11.60
2019-01-23T14:49:59.937Z,11.30
2019-01-23T14:52:30.406Z,10.70
2019-01-23T14:55:00.835Z,11.40
2019-01-23T14:57:31.446Z,11.08
2019-01-23T15:00:02.002Z,11.40
2019-01-23T15:02:34.076Z,12.07
2019-01-23T15:05:05.468Z,11.57
2019-01-23T15:07:36.106Z,12.15
2019-01-23T15:10:10.537Z,11.53
2019-01-23T15:12:41.246Z,11.83
2019-01-23T15:15:11.952Z,12.07
2019-01-23T15:17:44.549Z,11.22
2019-01-23T15:20:21.191Z,11.35
2019-01-23T15:22:51.908Z,11.57
2019-01-23T15:25:22.701Z,10.85
2019-01-23T15:27:53.330Z,11.28
2019-01-23T15:30:23.794Z,11.40
2019-01-23T15:32:54.422Z,12.55
2019-01-23T15:35:24.796Z,10.80
2019-01-23T15:37:55.124Z,12.00
2019-01-23T15:40:27.718Z,11.90
2019-01-23T15:42:58.433Z,11.63
2019-01-23T15:45:28.764Z,11.43
2019-01-23T15:47:59.084Z,12.03
2019-01-23T15:50:29.459Z,12.00
2019-01-23T15:52:59.858Z,12.53
2019-01-23T15:55:30.114Z,12.23
2019-01-23T15:58:00.555Z,11.18
2019-01-23T16:00:32.321Z,11.85
2019-01-23T16:03:02.991Z,11.08
2019-01-23T16:05:33.336Z,11.97
2019-01-23T16:08:03.844Z,11.80
2019-01-23T16:10:34.253Z,11.15
2019-01-23T16:13:04.587Z,11.50
2019-01-23T16:15:34.860Z,11.78
2019-01-23T16:18:05.359Z,11.22
2019-01-23T16:20:35.899Z,12.20
2019-01-23T16:23:06.099Z,12.50
2019-01-23T16:25:37.723Z,12.80
2019-01-23T16:28:07.920Z,12.85
2019-01-23T16:30:39.320Z,12.75
2019-01-23T16:33:09.796Z,12.30
2019-01-23T16:35:40.192Z,12.47
2019-01-23T16:38:11.442Z,12.45
2019-01-23T16:40:42.745Z,12.70
2019-01-23T16:43:13.205Z,13.65
2019-01-23T16:45:43.620Z,12.55
2019-01-23T16:48:15.199Z,13.22
2019-01-23T16:50:45.584Z,13.88
2019-01-23T16:53:16.182Z,13.10
2019-01-23T16:55:46.541Z,13.90
2019-01-23T16:58:16.972Z,13.40
2019-01-23T17:00:47.359Z,13.68
2019-01-23T17:03:17.971Z,13.72
2019-01-23T17:05:48.363Z,14.50
2019-01-23T17:08:18.784Z,15.03
2019-01-23T17:10:49.275Z,14.98
2019-01-23T17:13:19.677Z,14.50
2019-01-23T17:15:51.918Z,15.20
2019-01-23T17:18:22.297Z,15.38
2019-01-23T17:20:52.961Z,14.93
2019-01-23T17:23:23.430Z,15.55
2019-01-23T17:25:53.843Z,14.35
2019-01-23T17:28:24.324Z,15.00
2019-01-23T17:30:54.815Z,14.93
2019-01-23T17:33:25.277Z,14.93
2019-01-23T17:35:55.784Z,13.88
2019-01-23T17:38:26.335Z,13.80
2019-01-23T17:40:56.832Z,14.33
2019-01-23T17:43:28.078Z,13.40
2019-01-23T17:45:58.548Z,14.33
2019-01-23T17:48:28.977Z,13.65
2019-01-23T17:50:59.374Z,14.50
2019-01-23T17:53:29.816Z,14.07
2019-01-23T17:56:00.274Z,13.58
2019-01-23T17:58:30.731Z,13.45
2019-01-23T18:01:01.297Z,13.50
2019-01-23T18:03:31.781Z,13.58
2019-01-23T18:06:02.153Z,13.90
2019-01-23T18:08:32.508Z,14.05
2019-01-23T18:11:02.935Z,12.88
2019-01-23T18:13:33.442Z,12.75
2019-01-23T18:16:07.474Z,12.85
2019-01-23T18:18:37.889Z,13.18
2019-01-23T18:21:08.375Z,12.93
2019-01-23T18:23:38.871Z,13.98
2019-01-23T18:26:09.262Z,14.25
2019-01-23T18:28:39.800Z,12.98
2019-01-23T18:31:38.401Z,12.75
2019-01-23T18:34:50.242Z,12.45
2019-01-23T18:37:46.623Z,12.63
2019-01-23T18:40:44.246Z,12.60
2019-01-23T18:43:38.769Z,12.35
2019-01-23T18:47:00.390Z,12.82
2019-01-23T18:50:34.393Z,12.13
2019-01-23T18:53:05.883Z,13.48
2019-01-23T18:55:36.209Z,12.23
2019-01-23T18:58:06.524Z,12.80
2019-01-23T19:00:36.899Z,12.78
2019-01-23T19:03:08.569Z,12.63
2019-01-23T19:05:38.996Z,13.00
2019-01-23T19:08:10.681Z,12.98
2019-01-23T19:10:41.073Z,12.37
2019-01-23T19:13:11.610Z,12.43
2019-01-23T19:15:42.057Z,12.23
2019-01-23T19:18:12.501Z,12.53
2019-01-23T19:20:43.011Z,12.43
2019-01-23T19:23:13.406Z,12.78
2019-01-23T19:25:43.882Z,12.80
2019-01-23T19:28:14.249Z,12.98
2019-01-23T19:30:44.790Z,12.53
2019-01-23T19:33:15.232Z,11.53
2019-01-23T19:35:45.641Z,12.90
2019-01-23T19:38:16.044Z,13.00
2019-01-23T19:40:46.512Z,13.05
2019-01-23T19:43:16.956Z,12.85
2019-01-23T19:45:47.484Z,11.90
2019-01-23T19:48:18.136Z,13.43
2019-01-23T19:50:48.451Z,12.13
2019-01-23T19:53:18.971Z,12.30
2019-01-23T19:55:49.473Z,12.20
2019-01-23T19:58:19.833Z,11.85
2019-01-23T20:00:50.205Z,12.20
2019-01-23T20:03:20.875Z,12.30
2019-01-23T20:05:51.383Z,12.28
2019-01-23T20:08:21.883Z,11.63
2019-01-23T20:10:52.402Z,11.73
2019-01-23T20:13:22.882Z,11.40
2019-01-23T20:15:53.413Z,11.43
2019-01-23T20:18:24.895Z,11.25
2019-01-23T20:20:55.326Z,12.20
2019-01-23T20:23:25.710Z,11.43
2019-01-23T20:25:56.164Z,10.53
2019-01-23T20:28:26.677Z,11.73
2019-01-23T20:30:57.117Z,10.82
2019-01-23T20:33:28.130Z,12.10
2019-01-23T20:35:58.832Z,11.22
2019-01-23T20:38:29.283Z,10.40
2019-01-23T20:40:59.872Z,10.82
2019-01-23T20:43:30.444Z,11.20
2019-01-23T20:46:00.772Z,11.45
2019-01-23T20:48:32.250Z,10.32
2019-01-23T20:51:03.132Z,10.58
2019-01-23T20:53:33.463Z,10.82
2019-01-23T20:56:03.954Z,11.08
2019-01-23T20:58:34.566Z,10.82
2019-01-23T21:01:04.970Z,11.08
2019-01-23T21:03:35.382Z,10.38
2019-01-23T21:06:05.735Z,10.45
2019-01-23T21:08:36.165Z,10.08
2019-01-23T21:11:06.741Z,10.58
2019-01-23T21:13:38.953Z,10.63
2019-01-23T21:16:09.312Z,10.03
2019-01-23T21:18:39.842Z,10.72
2019-01-23T21:21:10.316Z,10.58
2019-01-23T21:23:40.684Z,9.98
2019-01-23T21:26:11.082Z,10.05
2019-01-23T21:28:41.551Z,9.90
2019-01-23T21:31:11.937Z,10.08
2019-01-23T21:33:42.448Z,9.58
2019-01-23T21:36:13.810Z,9.75
2019-01-23T21:38:44.165Z,9.98
2019-01-23T21:41:14.524Z,9.93
2019-01-23T21:43:44.949Z,10.13
2019-01-23T21:46:15.276Z,10.05
2019-01-23T21:48:45.768Z,10.32
2019-01-23T21:51:16.224Z,10.88
2019-01-23T21:53:46.766Z,9.95
2019-01-23T21:56:17.118Z,10.40
2019-01-23T21:58:47.485Z,9.93
2019-01-23T22:01:17.950Z,9.90
2019-01-23T22:03:49.466Z,10.82
2019-01-23T22:06:20.051Z,10.03
2019-01-23T22:08:50.665Z,10.32
2019-01-23T22:11:21.137Z,9.85
2019-01-23T22:13:51.619Z,10.15
2019-01-23T22:16:23.044Z,10.35
2019-01-23T22:18:53.421Z,9.70
2019-01-23T22:21:23.868Z,9.30
2019-01-23T22:23:54.300Z,9.58
2019-01-23T22:26:24.774Z,10.13
2019-01-23T22:28:55.179Z,9.43
2019-01-23T22:31:25.524Z,9.85
2019-01-23T22:33:56.398Z,10.53
2019-01-23T22:36:27.894Z,9.18
2019-01-23T22:38:58.358Z,9.93
2019-01-23T22:41:28.796Z,9.48
2019-01-23T22:43:59.056Z,8.68
2019-01-23T22:46:29.461Z,9.23
2019-01-23T22:48:59.956Z,9.40
2019-01-23T22:51:30.386Z,9.70
2019-01-23T22:54:00.906Z,9.33
2019-01-23T22:56:31.151Z,9.43
2019-01-23T22:59:01.659Z,9.98
2019-01-23T23:01:32.425Z,10.35
2019-01-23T23:04:03.725Z,10.13
2019-01-23T23:06:34.127Z,10.18
2019-01-23T23:09:08.191Z,9.68
2019-01-23T23:11:39.016Z,9.68
2019-01-23T23:14:09.398Z,8.78
2019-01-23T23:16:39.674Z,9.08
2019-01-23T23:19:10.068Z,9.08
2019-01-23T23:21:40.486Z,10.08
2019-01-23T23:24:11.007Z,9.50
2019-01-23T23:26:41.402Z,9.35
2019-01-23T23:29:11.955Z,9.38
2019-01-23T23:31:42.418Z,9.60
2019-01-23T23:34:12.914Z,9.38
2019-01-23T23:36:43.414Z,9.33
2019-01-23T23:39:13.748Z,8.93
2019-01-23T23:41:47.220Z,8.83
2019-01-23T23:44:17.748Z,8.75
2019-01-23T23:46:48.375Z,8.50
2019-01-23T23:49:18.802Z,9.08
2019-01-23T23:51:49.240Z,8.68
2019-01-23T23:54:19.660Z,8.80
2019-01-23T23:56:51.218Z,8.63
2019-01-23T23:59:21.742Z,9.10
